< < Back
Terminal Aerodrome Forecast


Current Version              Previous Versions:   1  2  3  4  5  6  7  8  9  

Terminal Aerodrome Forecast

248
FTUS44 KMOB 031742
TAFPNS
TAF
KPNS 031742Z 0318/0418 13005KT 3SM BR OVC003
     FM032100 14005KT 5SM BR OVC008
     FM040300 15005KT 1/4SM FG OVC004=

Latest METAR

752
SAUS70 KWBC 040656
MTRPNS
METAR KPNS 040653Z AUTO 14006KT 7SM CLR 17/16 A3005 RMK AO2 SLP178
T01670161


USA.gov is the U.S. government's official web portal to all federal, state and local government web resources and services.